sensor_id;sensor_type;location;lat;lon;timestamp;P1;durP1;ratioP1;P2;durP2;ratioP2
62790;SDS011;48830;53.426;10.300;2022-08-03T00:01:25;7.32;;;3.78;;
62790;SDS011;48830;53.426;10.300;2022-08-03T00:03:51;7.30;;;3.88;;
62790;SDS011;48830;53.426;10.300;2022-08-03T00:06:17;5.97;;;3.83;;
62790;SDS011;48830;53.426;10.300;2022-08-03T00:08:42;7.15;;;4.10;;
62790;SDS011;48830;53.426;10.300;2022-08-03T00:11:08;5.30;;;3.60;;
62790;SDS011;48830;53.426;10.300;2022-08-03T00:13:33;7.00;;;4.28;;
62790;SDS011;48830;53.426;10.300;2022-08-03T00:15:59;5.28;;;3.92;;
62790;SDS011;48830;53.426;10.300;2022-08-03T00:18:24;6.03;;;4.07;;
62790;SDS011;48830;53.426;10.300;2022-08-03T00:20:50;6.97;;;4.13;;
62790;SDS011;48830;53.426;10.300;2022-08-03T00:23:15;5.63;;;3.88;;
62790;SDS011;48830;53.426;10.300;2022-08-03T00:25:41;6.38;;;3.92;;
62790;SDS011;48830;53.426;10.300;2022-08-03T00:28:07;6.75;;;4.07;;
62790;SDS011;48830;53.426;10.300;2022-08-03T00:30:33;5.97;;;4.20;;
62790;SDS011;48830;53.426;10.300;2022-08-03T00:32:58;8.40;;;4.07;;
62790;SDS011;48830;53.426;10.300;2022-08-03T00:35:24;6.75;;;4.20;;
62790;SDS011;48830;53.426;10.300;2022-08-03T00:37:50;6.07;;;3.92;;
62790;SDS011;48830;53.426;10.300;2022-08-03T00:40:16;7.10;;;3.67;;
62790;SDS011;48830;53.426;10.300;2022-08-03T00:45:11;6.90;;;4.20;;
62790;SDS011;48830;53.426;10.300;2022-08-03T00:47:37;6.35;;;4.18;;
62790;SDS011;48830;53.426;10.300;2022-08-03T00:50:02;6.47;;;4.38;;
62790;SDS011;48830;53.426;10.300;2022-08-03T00:52:28;6.45;;;4.07;;
62790;SDS011;48830;53.426;10.300;2022-08-03T00:54:54;7.57;;;3.95;;
62790;SDS011;48830;53.426;10.300;2022-08-03T00:57:19;6.30;;;4.22;;
62790;SDS011;48830;53.426;10.300;2022-08-03T00:59:45;6.75;;;4.30;;
62790;SDS011;48830;53.426;10.300;2022-08-03T01:02:10;8.82;;;4.72;;
62790;SDS011;48830;53.426;10.300;2022-08-03T01:04:36;6.78;;;4.40;;
62790;SDS011;48830;53.426;10.300;2022-08-03T01:12:54;7.13;;;4.22;;
62790;SDS011;48830;53.426;10.300;2022-08-03T01:15:37;6.13;;;4.40;;
62790;SDS011;48830;53.426;10.300;2022-08-03T01:18:10;7.63;;;4.47;;
62790;SDS011;48830;53.426;10.300;2022-08-03T01:20:43;6.60;;;4.53;;
62790;SDS011;48830;53.426;10.300;2022-08-03T01:23:26;7.25;;;4.57;;
62790;SDS011;48830;53.426;10.300;2022-08-03T01:31:36;6.15;;;4.30;;
62790;SDS011;48830;53.426;10.300;2022-08-03T01:34:06;5.28;;;4.15;;
62790;SDS011;48830;53.426;10.300;2022-08-03T01:36:35;8.10;;;4.47;;
62790;SDS011;48830;53.426;10.300;2022-08-03T01:39:04;5.82;;;4.50;;
62790;SDS011;48830;53.426;10.300;2022-08-03T01:41:55;6.22;;;4.50;;
62790;SDS011;48830;53.426;10.300;2022-08-03T01:44:30;6.90;;;4.40;;
62790;SDS011;48830;53.426;10.300;2022-08-03T01:47:01;5.53;;;4.20;;
62790;SDS011;48830;53.426;10.300;2022-08-03T01:49:29;6.80;;;4.53;;
62790;SDS011;48830;53.426;10.300;2022-08-03T01:51:57;6.38;;;4.60;;
62790;SDS011;48830;53.426;10.300;2022-08-03T01:54:24;7.72;;;4.40;;
62790;SDS011;48830;53.426;10.300;2022-08-03T01:56:52;7.05;;;4.95;;
62790;SDS011;48830;53.426;10.300;2022-08-03T01:59:20;7.68;;;4.57;;
62790;SDS011;48830;53.426;10.300;2022-08-03T02:01:49;5.65;;;4.18;;
62790;SDS011;48830;53.426;10.300;2022-08-03T02:04:18;6.07;;;4.53;;
62790;SDS011;48830;53.426;10.300;2022-08-03T02:06:45;7.63;;;4.72;;
62790;SDS011;48830;53.426;10.300;2022-08-03T02:09:13;9.63;;;4.78;;
62790;SDS011;48830;53.426;10.300;2022-08-03T02:11:41;6.32;;;4.20;;
62790;SDS011;48830;53.426;10.300;2022-08-03T02:14:08;6.95;;;4.85;;
62790;SDS011;48830;53.426;10.300;2022-08-03T02:16:36;6.85;;;4.70;;
62790;SDS011;48830;53.426;10.300;2022-08-03T02:19:03;6.63;;;4.43;;
62790;SDS011;48830;53.426;10.300;2022-08-03T02:21:31;6.93;;;4.80;;
62790;SDS011;48830;53.426;10.300;2022-08-03T02:24:00;6.93;;;4.78;;
62790;SDS011;48830;53.426;10.300;2022-08-03T02:26:26;6.30;;;4.60;;
62790;SDS011;48830;53.426;10.300;2022-08-03T02:28:54;5.70;;;4.47;;
62790;SDS011;48830;53.426;10.300;2022-08-03T02:31:23;7.00;;;4.70;;
62790;SDS011;48830;53.426;10.300;2022-08-03T02:33:55;7.22;;;4.57;;
62790;SDS011;48830;53.426;10.300;2022-08-03T02:36:28;7.88;;;4.80;;
62790;SDS011;48830;53.426;10.300;2022-08-03T02:38:57;7.90;;;4.60;;
62790;SDS011;48830;53.426;10.300;2022-08-03T02:41:28;5.63;;;4.45;;
62790;SDS011;48830;53.426;10.300;2022-08-03T02:43:57;8.13;;;5.13;;
62790;SDS011;48830;53.426;10.300;2022-08-03T02:46:32;6.93;;;4.50;;
62790;SDS011;48830;53.426;10.300;2022-08-03T02:49:00;7.88;;;4.80;;
62790;SDS011;48830;53.426;10.300;2022-08-03T02:51:28;6.78;;;4.28;;
62790;SDS011;48830;53.426;10.300;2022-08-03T02:53:56;7.18;;;4.88;;
62790;SDS011;48830;53.426;10.300;2022-08-03T02:56:26;6.85;;;4.70;;
62790;SDS011;48830;53.426;10.300;2022-08-03T02:58:52;7.03;;;4.80;;
62790;SDS011;48830;53.426;10.300;2022-08-03T03:01:20;6.63;;;4.50;;
62790;SDS011;48830;53.426;10.300;2022-08-03T03:03:48;8.93;;;4.90;;
62790;SDS011;48830;53.426;10.300;2022-08-03T03:06:16;6.22;;;4.78;;
62790;SDS011;48830;53.426;10.300;2022-08-03T03:08:43;7.20;;;4.40;;
62790;SDS011;48830;53.426;10.300;2022-08-03T03:11:10;8.40;;;5.45;;
62790;SDS011;48830;53.426;10.300;2022-08-03T03:13:37;6.90;;;5.10;;
62790;SDS011;48830;53.426;10.300;2022-08-03T03:16:05;6.90;;;4.93;;
62790;SDS011;48830;53.426;10.300;2022-08-03T03:18:33;10.63;;;5.38;;
62790;SDS011;48830;53.426;10.300;2022-08-03T03:21:02;8.93;;;5.10;;
62790;SDS011;48830;53.426;10.300;2022-08-03T03:23:28;8.15;;;4.95;;
62790;SDS011;48830;53.426;10.300;2022-08-03T03:25:56;6.13;;;5.03;;
62790;SDS011;48830;53.426;10.300;2022-08-03T03:28:23;9.15;;;5.30;;
62790;SDS011;48830;53.426;10.300;2022-08-03T03:30:49;8.25;;;4.93;;
62790;SDS011;48830;53.426;10.300;2022-08-03T03:33:15;6.53;;;4.80;;
62790;SDS011;48830;53.426;10.300;2022-08-03T03:35:41;7.13;;;5.07;;
62790;SDS011;48830;53.426;10.300;2022-08-03T03:38:08;8.35;;;5.20;;
62790;SDS011;48830;53.426;10.300;2022-08-03T03:40:34;7.82;;;5.22;;
62790;SDS011;48830;53.426;10.300;2022-08-03T03:43:00;7.18;;;5.50;;
62790;SDS011;48830;53.426;10.300;2022-08-03T03:45:26;7.30;;;4.97;;
62790;SDS011;48830;53.426;10.300;2022-08-03T03:47:53;7.70;;;4.95;;
62790;SDS011;48830;53.426;10.300;2022-08-03T03:50:18;9.48;;;5.45;;
62790;SDS011;48830;53.426;10.300;2022-08-03T03:52:46;8.48;;;5.20;;
62790;SDS011;48830;53.426;10.300;2022-08-03T03:55:14;7.43;;;5.25;;
62790;SDS011;48830;53.426;10.300;2022-08-03T03:57:40;6.90;;;5.25;;
62790;SDS011;48830;53.426;10.300;2022-08-03T04:00:06;10.50;;;5.20;;
62790;SDS011;48830;53.426;10.300;2022-08-03T04:02:32;6.63;;;5.10;;
62790;SDS011;48830;53.426;10.300;2022-08-03T04:04:57;7.07;;;4.97;;
62790;SDS011;48830;53.426;10.300;2022-08-03T04:07:45;8.00;;;5.20;;
62790;SDS011;48830;53.426;10.300;2022-08-03T04:10:41;8.38;;;5.07;;
62790;SDS011;48830;53.426;10.300;2022-08-03T04:13:22;7.28;;;5.30;;
62790;SDS011;48830;53.426;10.300;2022-08-03T04:15:49;7.00;;;5.18;;
62790;SDS011;48830;53.426;10.300;2022-08-03T04:18:16;6.43;;;4.82;;
62790;SDS011;48830;53.426;10.300;2022-08-03T04:20:44;7.28;;;5.22;;
62790;SDS011;48830;53.426;10.300;2022-08-03T04:23:13;8.10;;;5.20;;
62790;SDS011;48830;53.426;10.300;2022-08-03T04:25:44;7.65;;;4.93;;
62790;SDS011;48830;53.426;10.300;2022-08-03T04:28:10;8.05;;;5.30;;
62790;SDS011;48830;53.426;10.300;2022-08-03T04:30:37;7.72;;;5.22;;
62790;SDS011;48830;53.426;10.300;2022-08-03T04:33:04;7.88;;;5.13;;
62790;SDS011;48830;53.426;10.300;2022-08-03T04:35:32;8.27;;;5.40;;
62790;SDS011;48830;53.426;10.300;2022-08-03T04:38:01;8.80;;;5.65;;
62790;SDS011;48830;53.426;10.300;2022-08-03T04:40:32;7.97;;;5.13;;
62790;SDS011;48830;53.426;10.300;2022-08-03T04:42:59;6.65;;;4.90;;
62790;SDS011;48830;53.426;10.300;2022-08-03T04:45:26;8.73;;;5.10;;
62790;SDS011;48830;53.426;10.300;2022-08-03T04:47:53;6.95;;;5.05;;
62790;SDS011;48830;53.426;10.300;2022-08-03T04:50:20;7.32;;;5.10;;
62790;SDS011;48830;53.426;10.300;2022-08-03T04:53:02;6.70;;;5.15;;
62790;SDS011;48830;53.426;10.300;2022-08-03T04:55:29;7.00;;;5.45;;
62790;SDS011;48830;53.426;10.300;2022-08-03T04:57:57;8.10;;;5.35;;
62790;SDS011;48830;53.426;10.300;2022-08-03T05:00:23;9.30;;;5.43;;
62790;SDS011;48830;53.426;10.300;2022-08-03T05:02:49;7.63;;;5.30;;
62790;SDS011;48830;53.426;10.300;2022-08-03T05:05:15;7.30;;;5.22;;
62790;SDS011;48830;53.426;10.300;2022-08-03T05:07:41;8.30;;;5.25;;
62790;SDS011;48830;53.426;10.300;2022-08-03T05:10:08;6.80;;;5.30;;
62790;SDS011;48830;53.426;10.300;2022-08-03T05:12:34;8.70;;;5.70;;
62790;SDS011;48830;53.426;10.300;2022-08-03T05:15:00;6.90;;;5.47;;
62790;SDS011;48830;53.426;10.300;2022-08-03T05:17:26;7.70;;;5.50;;
62790;SDS011;48830;53.426;10.300;2022-08-03T05:19:52;7.38;;;5.38;;
62790;SDS011;48830;53.426;10.300;2022-08-03T05:22:19;7.20;;;5.22;;
62790;SDS011;48830;53.426;10.300;2022-08-03T05:24:45;7.38;;;5.43;;
62790;SDS011;48830;53.426;10.300;2022-08-03T05:27:10;8.02;;;5.43;;
62790;SDS011;48830;53.426;10.300;2022-08-03T05:29:41;7.35;;;5.18;;
62790;SDS011;48830;53.426;10.300;2022-08-03T05:32:07;7.32;;;5.03;;
62790;SDS011;48830;53.426;10.300;2022-08-03T05:34:33;7.78;;;5.15;;
62790;SDS011;48830;53.426;10.300;2022-08-03T05:36:58;8.77;;;6.22;;
62790;SDS011;48830;53.426;10.300;2022-08-03T05:39:24;9.13;;;5.82;;
62790;SDS011;48830;53.426;10.300;2022-08-03T05:41:49;6.95;;;5.55;;
62790;SDS011;48830;53.426;10.300;2022-08-03T05:44:15;15.50;;;6.20;;
62790;SDS011;48830;53.426;10.300;2022-08-03T05:46:40;7.63;;;5.53;;
62790;SDS011;48830;53.426;10.300;2022-08-03T05:49:05;7.18;;;6.40;;
62790;SDS011;48830;53.426;10.300;2022-08-03T05:51:31;7.93;;;5.45;;
62790;SDS011;48830;53.426;10.300;2022-08-03T05:53:56;7.25;;;5.43;;
62790;SDS011;48830;53.426;10.300;2022-08-03T05:56:22;7.38;;;5.68;;
62790;SDS011;48830;53.426;10.300;2022-08-03T05:58:51;7.78;;;5.78;;
62790;SDS011;48830;53.426;10.300;2022-08-03T06:01:17;9.00;;;5.50;;
62790;SDS011;48830;53.426;10.300;2022-08-03T06:03:46;7.43;;;5.13;;
62790;SDS011;48830;53.426;10.300;2022-08-03T06:06:12;7.53;;;4.97;;
62790;SDS011;48830;53.426;10.300;2022-08-03T06:08:38;6.97;;;5.65;;
62790;SDS011;48830;53.426;10.300;2022-08-03T06:11:05;10.95;;;5.38;;
62790;SDS011;48830;53.426;10.300;2022-08-03T06:13:30;6.32;;;5.05;;
62790;SDS011;48830;53.426;10.300;2022-08-03T06:15:56;8.57;;;5.53;;
62790;SDS011;48830;53.426;10.300;2022-08-03T06:18:22;7.10;;;4.97;;
62790;SDS011;48830;53.426;10.300;2022-08-03T06:20:48;7.03;;;5.25;;
62790;SDS011;48830;53.426;10.300;2022-08-03T06:23:15;8.00;;;5.22;;
62790;SDS011;48830;53.426;10.300;2022-08-03T06:25:40;9.98;;;5.80;;
62790;SDS011;48830;53.426;10.300;2022-08-03T06:28:06;12.50;;;5.78;;
62790;SDS011;48830;53.426;10.300;2022-08-03T06:30:32;7.38;;;5.35;;
62790;SDS011;48830;53.426;10.300;2022-08-03T06:32:58;8.80;;;4.97;;
62790;SDS011;48830;53.426;10.300;2022-08-03T06:35:23;8.57;;;5.32;;
62790;SDS011;48830;53.426;10.300;2022-08-03T06:37:49;7.85;;;5.03;;
62790;SDS011;48830;53.426;10.300;2022-08-03T06:40:16;8.23;;;5.22;;
62790;SDS011;48830;53.426;10.300;2022-08-03T06:42:44;6.53;;;4.78;;
62790;SDS011;48830;53.426;10.300;2022-08-03T06:45:09;9.55;;;5.22;;
62790;SDS011;48830;53.426;10.300;2022-08-03T06:47:36;7.50;;;4.38;;
62790;SDS011;48830;53.426;10.300;2022-08-03T06:50:05;8.00;;;4.35;;
62790;SDS011;48830;53.426;10.300;2022-08-03T06:52:33;7.63;;;4.28;;
62790;SDS011;48830;53.426;10.300;2022-08-03T06:54:59;7.50;;;4.38;;
62790;SDS011;48830;53.426;10.300;2022-08-03T06:57:24;5.70;;;4.15;;
62790;SDS011;48830;53.426;10.300;2022-08-03T06:59:50;6.90;;;4.30;;
62790;SDS011;48830;53.426;10.300;2022-08-03T07:02:16;7.03;;;4.30;;
62790;SDS011;48830;53.426;10.300;2022-08-03T07:04:45;5.90;;;4.15;;
62790;SDS011;48830;53.426;10.300;2022-08-03T07:07:13;6.60;;;3.95;;
62790;SDS011;48830;53.426;10.300;2022-08-03T07:09:39;6.82;;;4.00;;
62790;SDS011;48830;53.426;10.300;2022-08-03T07:12:04;5.22;;;3.70;;
62790;SDS011;48830;53.426;10.300;2022-08-03T07:14:30;6.07;;;3.92;;
62790;SDS011;48830;53.426;10.300;2022-08-03T07:16:56;5.50;;;4.00;;
62790;SDS011;48830;53.426;10.300;2022-08-03T07:19:21;5.65;;;4.00;;
62790;SDS011;48830;53.426;10.300;2022-08-03T07:21:47;5.80;;;3.40;;
62790;SDS011;48830;53.426;10.300;2022-08-03T07:24:12;6.97;;;3.50;;
62790;SDS011;48830;53.426;10.300;2022-08-03T07:26:38;5.22;;;3.38;;
62790;SDS011;48830;53.426;10.300;2022-08-03T07:29:04;6.45;;;3.42;;
62790;SDS011;48830;53.426;10.300;2022-08-03T07:31:29;5.65;;;3.15;;
62790;SDS011;48830;53.426;10.300;2022-08-03T07:33:54;9.05;;;3.78;;
62790;SDS011;48830;53.426;10.300;2022-08-03T07:36:20;5.57;;;3.40;;
62790;SDS011;48830;53.426;10.300;2022-08-03T07:38:46;8.70;;;3.58;;
62790;SDS011;48830;53.426;10.300;2022-08-03T07:41:11;4.68;;;2.90;;
62790;SDS011;48830;53.426;10.300;2022-08-03T07:43:37;3.88;;;2.88;;
62790;SDS011;48830;53.426;10.300;2022-08-03T07:46:02;6.00;;;3.22;;
62790;SDS011;48830;53.426;10.300;2022-08-03T07:48:28;7.38;;;3.45;;
62790;SDS011;48830;53.426;10.300;2022-08-03T07:50:53;4.35;;;3.08;;
62790;SDS011;48830;53.426;10.300;2022-08-03T07:53:18;5.47;;;3.00;;
62790;SDS011;48830;53.426;10.300;2022-08-03T07:55:44;5.70;;;2.80;;
62790;SDS011;48830;53.426;10.300;2022-08-03T07:58:10;4.72;;;2.65;;
62790;SDS011;48830;53.426;10.300;2022-08-03T08:00:39;4.32;;;2.60;;
62790;SDS011;48830;53.426;10.300;2022-08-03T08:03:05;5.25;;;3.10;;
62790;SDS011;48830;53.426;10.300;2022-08-03T08:05:31;5.60;;;3.10;;
62790;SDS011;48830;53.426;10.300;2022-08-03T08:07:56;7.47;;;3.08;;
62790;SDS011;48830;53.426;10.300;2022-08-03T08:10:22;3.97;;;2.67;;
62790;SDS011;48830;53.426;10.300;2022-08-03T08:12:48;6.03;;;2.90;;
62790;SDS011;48830;53.426;10.300;2022-08-03T08:15:13;5.55;;;2.67;;
62790;SDS011;48830;53.426;10.300;2022-08-03T08:17:43;4.78;;;2.72;;
62790;SDS011;48830;53.426;10.300;2022-08-03T08:20:11;6.18;;;3.05;;
62790;SDS011;48830;53.426;10.300;2022-08-03T08:22:39;6.75;;;2.70;;
62790;SDS011;48830;53.426;10.300;2022-08-03T08:25:05;5.30;;;2.58;;
62790;SDS011;48830;53.426;10.300;2022-08-03T08:27:31;5.05;;;2.60;;
62790;SDS011;48830;53.426;10.300;2022-08-03T08:29:56;6.35;;;2.92;;
62790;SDS011;48830;53.426;10.300;2022-08-03T08:32:22;8.23;;;2.88;;
62790;SDS011;48830;53.426;10.300;2022-08-03T08:34:47;5.43;;;2.25;;
62790;SDS011;48830;53.426;10.300;2022-08-03T08:37:13;3.88;;;2.20;;
62790;SDS011;48830;53.426;10.300;2022-08-03T08:39:39;4.70;;;2.17;;
62790;SDS011;48830;53.426;10.300;2022-08-03T08:42:04;3.28;;;2.00;;
62790;SDS011;48830;53.426;10.300;2022-08-03T08:44:29;7.60;;;2.55;;
62790;SDS011;48830;53.426;10.300;2022-08-03T08:46:55;3.75;;;2.05;;
62790;SDS011;48830;53.426;10.300;2022-08-03T08:49:23;6.95;;;2.30;;
62790;SDS011;48830;53.426;10.300;2022-08-03T08:51:52;3.95;;;2.17;;
62790;SDS011;48830;53.426;10.300;2022-08-03T08:54:20;6.07;;;2.30;;
62790;SDS011;48830;53.426;10.300;2022-08-03T08:56:47;5.63;;;2.28;;
62790;SDS011;48830;53.426;10.300;2022-08-03T08:59:15;6.50;;;2.55;;
62790;SDS011;48830;53.426;10.300;2022-08-03T09:01:42;5.45;;;2.13;;
62790;SDS011;48830;53.426;10.300;2022-08-03T09:04:07;5.47;;;2.08;;
62790;SDS011;48830;53.426;10.300;2022-08-03T09:06:33;4.30;;;2.20;;
62790;SDS011;48830;53.426;10.300;2022-08-03T09:08:59;5.60;;;2.33;;
62790;SDS011;48830;53.426;10.300;2022-08-03T09:11:25;4.68;;;2.20;;
62790;SDS011;48830;53.426;10.300;2022-08-03T09:13:50;5.15;;;2.30;;
62790;SDS011;48830;53.426;10.300;2022-08-03T09:16:17;5.18;;;2.08;;
62790;SDS011;48830;53.426;10.300;2022-08-03T09:18:46;5.00;;;2.20;;
62790;SDS011;48830;53.426;10.300;2022-08-03T09:21:20;6.10;;;2.35;;
62790;SDS011;48830;53.426;10.300;2022-08-03T09:23:54;6.63;;;2.30;;
62790;SDS011;48830;53.426;10.300;2022-08-03T09:26:27;7.43;;;2.10;;
62790;SDS011;48830;53.426;10.300;2022-08-03T09:29:01;5.10;;;2.20;;
62790;SDS011;48830;53.426;10.300;2022-08-03T09:31:37;6.47;;;2.28;;
62790;SDS011;48830;53.426;10.300;2022-08-03T09:34:05;3.80;;;2.10;;
62790;SDS011;48830;53.426;10.300;2022-08-03T09:39:10;4.43;;;1.95;;
62790;SDS011;48830;53.426;10.300;2022-08-03T09:41:45;6.30;;;2.08;;
62790;SDS011;48830;53.426;10.300;2022-08-03T09:44:13;6.35;;;2.13;;
62790;SDS011;48830;53.426;10.300;2022-08-03T09:46:46;5.03;;;2.00;;
62790;SDS011;48830;53.426;10.300;2022-08-03T09:49:16;8.68;;;2.17;;
62790;SDS011;48830;53.426;10.300;2022-08-03T09:51:42;6.30;;;1.92;;
62790;SDS011;48830;53.426;10.300;2022-08-03T09:54:08;6.05;;;2.03;;
62790;SDS011;48830;53.426;10.300;2022-08-03T09:56:43;5.95;;;1.92;;
62790;SDS011;48830;53.426;10.300;2022-08-03T09:59:11;4.93;;;1.85;;
62790;SDS011;48830;53.426;10.300;2022-08-03T10:01:38;8.02;;;2.30;;
62790;SDS011;48830;53.426;10.300;2022-08-03T10:04:10;5.82;;;2.25;;
62790;SDS011;48830;53.426;10.300;2022-08-03T10:06:39;5.13;;;2.03;;
62790;SDS011;48830;53.426;10.300;2022-08-03T10:09:08;9.23;;;2.70;;
62790;SDS011;48830;53.426;10.300;2022-08-03T10:11:39;7.47;;;2.20;;
62790;SDS011;48830;53.426;10.300;2022-08-03T10:14:07;6.05;;;1.98;;
62790;SDS011;48830;53.426;10.300;2022-08-03T10:16:43;7.55;;;2.08;;
62790;SDS011;48830;53.426;10.300;2022-08-03T10:19:09;4.90;;;1.90;;
62790;SDS011;48830;53.426;10.300;2022-08-03T10:21:36;6.03;;;2.20;;
62790;SDS011;48830;53.426;10.300;2022-08-03T10:24:07;6.78;;;2.00;;
62790;SDS011;48830;53.426;10.300;2022-08-03T10:26:35;8.48;;;2.17;;
62790;SDS011;48830;53.426;10.300;2022-08-03T10:29:05;7.43;;;2.10;;
62790;SDS011;48830;53.426;10.300;2022-08-03T10:31:40;6.78;;;2.45;;
62790;SDS011;48830;53.426;10.300;2022-08-03T10:34:14;7.20;;;2.35;;
62790;SDS011;48830;53.426;10.300;2022-08-03T10:36:46;5.20;;;2.15;;
62790;SDS011;48830;53.426;10.300;2022-08-03T10:39:13;5.60;;;2.10;;
62790;SDS011;48830;53.426;10.300;2022-08-03T10:41:44;4.45;;;2.00;;
62790;SDS011;48830;53.426;10.300;2022-08-03T10:44:13;6.35;;;2.40;;
62790;SDS011;48830;53.426;10.300;2022-08-03T10:46:43;6.68;;;1.92;;
62790;SDS011;48830;53.426;10.300;2022-08-03T10:49:17;6.68;;;1.75;;
62790;SDS011;48830;53.426;10.300;2022-08-03T10:51:43;9.00;;;2.20;;
62790;SDS011;48830;53.426;10.300;2022-08-03T10:54:53;7.93;;;2.38;;
62790;SDS011;48830;53.426;10.300;2022-08-03T10:56:59;6.35;;;2.35;;
62790;SDS011;48830;53.426;10.300;2022-08-03T11:02:14;7.40;;;2.55;;
62790;SDS011;48830;53.426;10.300;2022-08-03T11:04:41;6.30;;;2.10;;
62790;SDS011;48830;53.426;10.300;2022-08-03T11:09:42;7.18;;;2.17;;
62790;SDS011;48830;53.426;10.300;2022-08-03T11:12:21;7.90;;;2.55;;
62790;SDS011;48830;53.426;10.300;2022-08-03T11:14:47;7.10;;;2.78;;
62790;SDS011;48830;53.426;10.300;2022-08-03T11:17:14;5.53;;;2.45;;
62790;SDS011;48830;53.426;10.300;2022-08-03T11:19:43;5.18;;;2.45;;
62790;SDS011;48830;53.426;10.300;2022-08-03T11:22:09;6.28;;;2.40;;
62790;SDS011;48830;53.426;10.300;2022-08-03T11:35:16;7.00;;;2.33;;
62790;SDS011;48830;53.426;10.300;2022-08-03T11:40:37;4.57;;;2.03;;
62790;SDS011;48830;53.426;10.300;2022-08-03T11:48:22;5.28;;;2.30;;
62790;SDS011;48830;53.426;10.300;2022-08-03T11:50:51;5.00;;;2.10;;
62790;SDS011;48830;53.426;10.300;2022-08-03T11:53:17;6.07;;;2.28;;
62790;SDS011;48830;53.426;10.300;2022-08-03T11:55:44;4.15;;;2.10;;
62790;SDS011;48830;53.426;10.300;2022-08-03T11:58:19;7.57;;;2.53;;
62790;SDS011;48830;53.426;10.300;2022-08-03T12:00:46;8.05;;;2.10;;
62790;SDS011;48830;53.426;10.300;2022-08-03T12:03:13;7.07;;;2.08;;
62790;SDS011;48830;53.426;10.300;2022-08-03T12:05:41;5.38;;;1.83;;
62790;SDS011;48830;53.426;10.300;2022-08-03T12:08:12;5.70;;;2.22;;
62790;SDS011;48830;53.426;10.300;2022-08-03T12:10:39;6.65;;;2.20;;
62790;SDS011;48830;53.426;10.300;2022-08-03T12:13:09;5.30;;;2.00;;
62790;SDS011;48830;53.426;10.300;2022-08-03T12:15:35;4.18;;;2.03;;
62790;SDS011;48830;53.426;10.300;2022-08-03T12:18:03;6.40;;;2.33;;
62790;SDS011;48830;53.426;10.300;2022-08-03T12:20:36;7.47;;;2.28;;
62790;SDS011;48830;53.426;10.300;2022-08-03T12:23:03;5.78;;;2.10;;
62790;SDS011;48830;53.426;10.300;2022-08-03T12:25:30;5.45;;;2.10;;
62790;SDS011;48830;53.426;10.300;2022-08-03T12:28:05;4.22;;;2.38;;
62790;SDS011;48830;53.426;10.300;2022-08-03T12:30:33;5.13;;;2.15;;
62790;SDS011;48830;53.426;10.300;2022-08-03T12:32:59;6.57;;;2.35;;
62790;SDS011;48830;53.426;10.300;2022-08-03T12:35:49;5.00;;;2.30;;
62790;SDS011;48830;53.426;10.300;2022-08-03T12:38:28;7.25;;;2.40;;
62790;SDS011;48830;53.426;10.300;2022-08-03T12:43:30;6.57;;;2.10;;
62790;SDS011;48830;53.426;10.300;2022-08-03T12:46:57;4.47;;;2.10;;
62790;SDS011;48830;53.426;10.300;2022-08-03T12:49:06;6.38;;;2.25;;
62790;SDS011;48830;53.426;10.300;2022-08-03T12:54:08;6.38;;;2.30;;
62790;SDS011;48830;53.426;10.300;2022-08-03T12:59:30;5.35;;;2.00;;
62790;SDS011;48830;53.426;10.300;2022-08-03T13:01:56;5.07;;;1.90;;
62790;SDS011;48830;53.426;10.300;2022-08-03T13:04:30;7.65;;;2.10;;
62790;SDS011;48830;53.426;10.300;2022-08-03T13:06:58;4.70;;;2.00;;
62790;SDS011;48830;53.426;10.300;2022-08-03T13:09:41;4.63;;;1.95;;
62790;SDS011;48830;53.426;10.300;2022-08-03T13:12:11;6.78;;;2.08;;
62790;SDS011;48830;53.426;10.300;2022-08-03T13:14:45;5.93;;;1.98;;
62790;SDS011;48830;53.426;10.300;2022-08-03T13:17:12;8.40;;;2.22;;
62790;SDS011;48830;53.426;10.300;2022-08-03T13:19:37;6.13;;;2.00;;
62790;SDS011;48830;53.426;10.300;2022-08-03T13:22:17;5.28;;;2.00;;
62790;SDS011;48830;53.426;10.300;2022-08-03T13:24:43;8.30;;;2.10;;
62790;SDS011;48830;53.426;10.300;2022-08-03T13:27:10;5.15;;;2.10;;
62790;SDS011;48830;53.426;10.300;2022-08-03T13:29:36;5.30;;;2.20;;
62790;SDS011;48830;53.426;10.300;2022-08-03T13:32:02;6.32;;;2.05;;
62790;SDS011;48830;53.426;10.300;2022-08-03T13:34:29;4.55;;;1.88;;
62790;SDS011;48830;53.426;10.300;2022-08-03T13:36:54;5.28;;;2.08;;
62790;SDS011;48830;53.426;10.300;2022-08-03T13:39:20;10.27;;;2.33;;
62790;SDS011;48830;53.426;10.300;2022-08-03T13:41:46;11.80;;;2.22;;
62790;SDS011;48830;53.426;10.300;2022-08-03T13:44:12;7.03;;;2.17;;
62790;SDS011;48830;53.426;10.300;2022-08-03T13:46:38;6.90;;;2.00;;
62790;SDS011;48830;53.426;10.300;2022-08-03T13:49:04;8.73;;;2.22;;
62790;SDS011;48830;53.426;10.300;2022-08-03T13:51:30;6.28;;;2.08;;
62790;SDS011;48830;53.426;10.300;2022-08-03T13:53:55;7.15;;;2.50;;
62790;SDS011;48830;53.426;10.300;2022-08-03T13:56:23;5.93;;;2.10;;
62790;SDS011;48830;53.426;10.300;2022-08-03T13:58:49;5.82;;;1.90;;
62790;SDS011;48830;53.426;10.300;2022-08-03T14:01:15;8.13;;;2.20;;
62790;SDS011;48830;53.426;10.300;2022-08-03T14:03:40;5.28;;;2.05;;
62790;SDS011;48830;53.426;10.300;2022-08-03T14:06:05;7.55;;;2.00;;
62790;SDS011;48830;53.426;10.300;2022-08-03T14:08:31;5.63;;;2.10;;
62790;SDS011;48830;53.426;10.300;2022-08-03T14:10:56;8.30;;;2.55;;
62790;SDS011;48830;53.426;10.300;2022-08-03T14:13:22;6.60;;;2.00;;
62790;SDS011;48830;53.426;10.300;2022-08-03T14:15:49;9.05;;;2.00;;
62790;SDS011;48830;53.426;10.300;2022-08-03T14:18:16;5.53;;;2.00;;
62790;SDS011;48830;53.426;10.300;2022-08-03T14:20:43;7.28;;;1.80;;
62790;SDS011;48830;53.426;10.300;2022-08-03T14:23:09;6.20;;;2.17;;
62790;SDS011;48830;53.426;10.300;2022-08-03T14:25:34;5.43;;;2.00;;
62790;SDS011;48830;53.426;10.300;2022-08-03T14:28:00;4.88;;;2.00;;
62790;SDS011;48830;53.426;10.300;2022-08-03T14:30:25;6.38;;;2.10;;
62790;SDS011;48830;53.426;10.300;2022-08-03T14:32:51;7.53;;;2.17;;
62790;SDS011;48830;53.426;10.300;2022-08-03T14:35:16;7.15;;;1.95;;
62790;SDS011;48830;53.426;10.300;2022-08-03T14:37:42;5.88;;;2.08;;
62790;SDS011;48830;53.426;10.300;2022-08-03T14:40:07;5.80;;;2.17;;
62790;SDS011;48830;53.426;10.300;2022-08-03T14:42:33;5.25;;;2.22;;
62790;SDS011;48830;53.426;10.300;2022-08-03T14:44:58;6.65;;;2.00;;
62790;SDS011;48830;53.426;10.300;2022-08-03T14:47:24;8.50;;;2.05;;
62790;SDS011;48830;53.426;10.300;2022-08-03T14:49:49;4.93;;;2.00;;
62790;SDS011;48830;53.426;10.300;2022-08-03T14:52:15;5.20;;;1.85;;
62790;SDS011;48830;53.426;10.300;2022-08-03T14:54:40;6.10;;;2.17;;
62790;SDS011;48830;53.426;10.300;2022-08-03T14:57:06;4.25;;;1.85;;
62790;SDS011;48830;53.426;10.300;2022-08-03T14:59:31;4.05;;;1.90;;
62790;SDS011;48830;53.426;10.300;2022-08-03T15:01:57;8.88;;;2.08;;
62790;SDS011;48830;53.426;10.300;2022-08-03T15:04:22;7.00;;;2.17;;
62790;SDS011;48830;53.426;10.300;2022-08-03T15:06:47;8.15;;;2.10;;
62790;SDS011;48830;53.426;10.300;2022-08-03T15:09:13;5.25;;;1.95;;
62790;SDS011;48830;53.426;10.300;2022-08-03T15:11:39;7.80;;;2.25;;
62790;SDS011;48830;53.426;10.300;2022-08-03T15:14:04;5.63;;;2.10;;
62790;SDS011;48830;53.426;10.300;2022-08-03T15:16:30;6.22;;;2.30;;
62790;SDS011;48830;53.426;10.300;2022-08-03T15:18:56;6.75;;;1.85;;
62790;SDS011;48830;53.426;10.300;2022-08-03T15:21:21;7.53;;;2.08;;
62790;SDS011;48830;53.426;10.300;2022-08-03T15:23:48;5.70;;;2.03;;
62790;SDS011;48830;53.426;10.300;2022-08-03T15:26:13;8.10;;;2.20;;